Terminal Aerodrome Forecast
Issued by NWS

Home | Current Version | Previous Version | Text Only | Print | Product List | Glossary On
Versions: 1 2 3 4 5 6 7 8 9 10 11 12 13 14 15 16 17 18 19 20 21 22 23 24 25 26 27 28
000
FTUS45 KBOI 201139
TAFMYL
TAF
KMYL 201139Z 2012/2112 25007KT 6SM -SHRASN OVC025
     FM201300 25007KT 1SM -SHSN OVC009
     FM201800 25010G20KT P6SM VCSH BKN020
      TEMPO 2021/2101 1SM -SHSN BKN009
     FM210100 VRB06KT P6SM VCFG BKN020=

USA.gov is the U.S. government's official web portal to all federal, state and local government web resources and services.